createdAt,value
2022-12-03T00:02:13.567Z,8.20
2022-12-03T00:04:40.467Z,9.38
2022-12-03T00:07:07.511Z,7.85
2022-12-03T00:09:34.254Z,7.95
2022-12-03T00:12:00.836Z,9.38
2022-12-03T00:14:27.588Z,8.73
2022-12-03T00:16:54.033Z,8.63
2022-12-03T00:19:24.105Z,8.70
2022-12-03T00:21:50.850Z,9.70
2022-12-03T00:24:17.611Z,9.45
2022-12-03T00:26:44.357Z,10.13
2022-12-03T00:29:11.493Z,10.07
2022-12-03T00:31:38.085Z,8.88
2022-12-03T00:34:04.852Z,9.32
2022-12-03T00:36:31.485Z,9.55
2022-12-03T00:38:58.343Z,9.75
2022-12-03T00:41:24.825Z,8.95
2022-12-03T00:43:51.761Z,9.63
2022-12-03T00:46:21.597Z,9.85
2022-12-03T00:48:48.458Z,10.38
2022-12-03T00:51:15.075Z,10.48
2022-12-03T00:53:41.968Z,10.15
2022-12-03T00:56:08.665Z,11.10
2022-12-03T00:58:35.203Z,10.55
2022-12-03T01:01:01.815Z,10.98
2022-12-03T01:03:29.235Z,11.65
2022-12-03T01:05:55.743Z,10.27
2022-12-03T01:08:22.532Z,12.07
2022-12-03T01:10:50.065Z,11.70
2022-12-03T01:13:16.554Z,12.02
2022-12-03T01:15:43.802Z,11.85
2022-12-03T01:18:10.521Z,12.15
2022-12-03T01:20:38.427Z,12.80
2022-12-03T01:23:05.839Z,12.70
2022-12-03T01:25:32.378Z,11.77
2022-12-03T01:27:59.706Z,11.57
2022-12-03T01:30:26.316Z,11.10
2022-12-03T01:32:52.750Z,12.68
2022-12-03T01:35:20.035Z,12.00
2022-12-03T01:37:46.687Z,12.43
2022-12-03T01:40:19.645Z,12.77
2022-12-03T01:43:06.851Z,12.52
2022-12-03T01:45:53.678Z,13.07
2022-12-03T01:48:40.921Z,13.38
2022-12-03T01:51:27.329Z,13.70
2022-12-03T01:54:19.720Z,13.32
2022-12-03T01:57:18.491Z,12.95
2022-12-03T01:59:45.358Z,13.23
2022-12-03T02:02:14.249Z,12.90
2022-12-03T02:04:40.992Z,12.65
2022-12-03T02:07:23.018Z,12.68
2022-12-03T02:09:50.238Z,11.60
2022-12-03T02:12:20.131Z,12.77
2022-12-03T02:14:47.230Z,12.45
2022-12-03T02:17:13.992Z,12.30
2022-12-03T02:19:40.454Z,13.90
2022-12-03T02:22:26.696Z,13.40
2022-12-03T02:24:59.462Z,13.52
2022-12-03T02:27:28.480Z,13.57
2022-12-03T02:29:55.507Z,15.38
2022-12-03T02:32:23.367Z,14.02
2022-12-03T02:34:51.934Z,14.82
2022-12-03T02:37:28.117Z,13.57
2022-12-03T02:40:00.234Z,14.75
2022-12-03T02:42:36.981Z,15.13
2022-12-03T02:45:09.081Z,14.15
2022-12-03T02:47:41.354Z,15.52
2022-12-03T02:50:09.805Z,14.70
2022-12-03T02:52:37.225Z,14.60
2022-12-03T02:55:06.080Z,14.98
2022-12-03T02:57:35.080Z,14.52
2022-12-03T03:00:02.272Z,15.05
2022-12-03T03:02:29.143Z,14.68
2022-12-03T03:04:57.225Z,13.38
2022-12-03T03:07:23.849Z,14.32
2022-12-03T03:09:50.633Z,15.10
2022-12-03T03:12:17.530Z,15.20
2022-12-03T03:14:44.103Z,15.65
2022-12-03T03:17:11.729Z,13.93
2022-12-03T03:19:38.206Z,14.25
2022-12-03T03:22:05.662Z,14.85
2022-12-03T03:24:32.474Z,14.65
2022-12-03T03:26:59.222Z,14.23
2022-12-03T03:29:26.481Z,13.70
2022-12-03T03:31:53.250Z,14.40
2022-12-03T03:34:20.532Z,13.93
2022-12-03T03:36:47.317Z,14.90
2022-12-03T03:39:14.682Z,14.75
2022-12-03T03:41:42.933Z,14.48
2022-12-03T03:44:10.127Z,14.13
2022-12-03T03:46:38.511Z,14.68
2022-12-03T03:49:07.007Z,13.73
2022-12-03T03:51:35.175Z,15.60
2022-12-03T03:54:04.369Z,14.02
2022-12-03T03:56:32.398Z,14.30
2022-12-03T03:58:59.243Z,14.63
2022-12-03T04:01:26.688Z,15.20
2022-12-03T04:03:54.391Z,14.57
2022-12-03T04:06:21.009Z,14.13
2022-12-03T04:08:47.926Z,14.65
2022-12-03T04:11:33.871Z,14.40
2022-12-03T04:14:00.469Z,15.40
2022-12-03T04:16:27.699Z,15.40
2022-12-03T04:18:54.513Z,13.75
2022-12-03T04:21:42.360Z,13.95
2022-12-03T04:24:10.853Z,14.77
2022-12-03T04:26:56.848Z,15.35
2022-12-03T04:29:23.838Z,15.63
2022-12-03T04:32:08.989Z,15.18
2022-12-03T04:34:54.728Z,14.52
2022-12-03T04:37:22.223Z,16.45
2022-12-03T04:39:48.987Z,15.18
2022-12-03T04:42:15.456Z,14.88
2022-12-03T04:44:42.448Z,14.73
2022-12-03T04:47:09.078Z,15.98
2022-12-03T04:49:39.161Z,16.92
2022-12-03T04:52:06.019Z,16.75
2022-12-03T04:54:33.001Z,15.40
2022-12-03T04:56:59.700Z,15.50
2022-12-03T04:59:26.262Z,14.93
2022-12-03T05:01:53.790Z,16.15
2022-12-03T05:04:20.309Z,15.25
2022-12-03T05:06:47.379Z,15.80
2022-12-03T05:09:14.795Z,16.20
2022-12-03T05:11:41.898Z,15.07
2022-12-03T05:14:09.890Z,14.60
2022-12-03T05:16:37.281Z,16.05
2022-12-03T05:19:06.182Z,15.48
2022-12-03T05:21:32.635Z,15.02
2022-12-03T05:23:59.537Z,16.10
2022-12-03T05:26:26.351Z,15.88
2022-12-03T05:28:53.139Z,16.05
2022-12-03T05:31:19.703Z,15.82
2022-12-03T05:33:46.241Z,16.15
2022-12-03T05:36:13.259Z,15.52
2022-12-03T05:38:39.833Z,16.75
2022-12-03T05:41:27.175Z,16.17
2022-12-03T05:43:53.737Z,17.60
2022-12-03T05:46:20.975Z,15.45
2022-12-03T05:48:48.072Z,16.25
2022-12-03T05:51:14.829Z,16.42
2022-12-03T05:53:41.298Z,17.30
2022-12-03T05:56:08.331Z,16.85
2022-12-03T05:58:34.919Z,17.10
2022-12-03T06:01:01.830Z,17.27
2022-12-03T06:03:28.704Z,17.63
2022-12-03T06:05:55.284Z,17.52
2022-12-03T06:08:22.113Z,18.75
2022-12-03T06:10:48.969Z,18.33
2022-12-03T06:13:15.848Z,17.90
2022-12-03T06:15:44.140Z,18.25
2022-12-03T06:18:11.262Z,17.67
2022-12-03T06:20:38.974Z,16.50
2022-12-03T06:23:05.410Z,17.15
2022-12-03T06:25:32.353Z,17.88
2022-12-03T06:27:58.804Z,17.73
2022-12-03T06:30:25.508Z,16.35
2022-12-03T06:32:52.574Z,18.50
2022-12-03T06:35:19.859Z,18.20
2022-12-03T06:37:48.838Z,18.70
2022-12-03T06:40:16.763Z,18.27
2022-12-03T06:42:43.246Z,18.10
2022-12-03T06:45:10.546Z,17.70
2022-12-03T06:47:37.243Z,17.92
2022-12-03T06:50:06.042Z,18.20
2022-12-03T06:52:32.741Z,17.55
2022-12-03T06:54:59.472Z,19.20
2022-12-03T06:57:26.552Z,19.02
2022-12-03T06:59:53.173Z,18.70
2022-12-03T07:02:20.084Z,17.83
2022-12-03T07:04:46.763Z,18.05
2022-12-03T07:07:14.530Z,18.27
2022-12-03T07:09:40.977Z,17.60
2022-12-03T07:12:07.879Z,17.70
2022-12-03T07:14:34.714Z,18.65
2022-12-03T07:17:01.864Z,17.95
2022-12-03T07:19:32.585Z,19.58
2022-12-03T07:22:00.360Z,18.23
2022-12-03T07:24:27.213Z,19.15
2022-12-03T07:26:54.078Z,19.17
2022-12-03T07:29:21.221Z,19.00
2022-12-03T07:31:47.964Z,19.40
2022-12-03T07:34:15.414Z,18.95
2022-12-03T07:36:41.888Z,18.73
2022-12-03T07:39:08.596Z,20.05
2022-12-03T07:41:34.981Z,19.27
2022-12-03T07:44:01.789Z,20.08
2022-12-03T07:46:28.379Z,19.85
2022-12-03T07:48:55.532Z,19.60
2022-12-03T07:51:25.078Z,19.63
2022-12-03T07:53:53.818Z,19.13
2022-12-03T07:56:20.502Z,19.38
2022-12-03T07:58:46.989Z,19.38
2022-12-03T08:01:13.679Z,20.35
2022-12-03T08:03:43.082Z,21.42
2022-12-03T08:06:10.077Z,21.73
2022-12-03T08:08:36.891Z,21.65
2022-12-03T08:11:03.766Z,21.92
2022-12-03T08:13:30.253Z,21.88
2022-12-03T08:16:00.658Z,20.77
2022-12-03T08:20:54.588Z,19.92
2022-12-03T08:23:24.433Z,22.17
2022-12-03T08:25:52.797Z,23.88
2022-12-03T08:28:26.477Z,21.48
2022-12-03T08:31:00.965Z,22.45
2022-12-03T08:33:35.470Z,22.27
2022-12-03T08:36:33.812Z,22.60
2022-12-03T08:39:34.275Z,21.00
2022-12-03T08:42:26.255Z,22.25
2022-12-03T08:44:53.303Z,20.50
2022-12-03T08:47:22.310Z,21.52
2022-12-03T08:49:55.355Z,20.85
2022-12-03T08:52:30.297Z,21.10
2022-12-03T08:54:57.216Z,21.67
2022-12-03T08:57:26.596Z,21.70
2022-12-03T08:59:58.535Z,21.08
2022-12-03T09:02:31.988Z,22.05
2022-12-03T09:04:59.512Z,21.83
2022-12-03T09:07:26.378Z,21.77
2022-12-03T09:09:53.301Z,21.95
2022-12-03T09:12:20.159Z,21.85
2022-12-03T09:14:46.999Z,20.55
2022-12-03T09:17:16.177Z,20.77
2022-12-03T09:19:46.226Z,22.77
2022-12-03T09:22:13.556Z,20.75
2022-12-03T09:24:41.964Z,21.15
2022-12-03T09:27:08.918Z,21.23
2022-12-03T09:29:35.679Z,22.38
2022-12-03T09:32:02.530Z,22.00
2022-12-03T09:34:29.090Z,21.90
2022-12-03T09:36:55.790Z,20.63
2022-12-03T09:39:22.597Z,21.05
2022-12-03T09:41:49.513Z,21.25
2022-12-03T09:44:18.227Z,20.50
2022-12-03T09:46:46.551Z,21.73
2022-12-03T09:49:16.434Z,20.23
2022-12-03T09:51:44.157Z,21.75
2022-12-03T09:54:22.112Z,22.00
2022-12-03T09:56:48.623Z,20.88
2022-12-03T09:59:16.195Z,21.52
2022-12-03T10:01:43.720Z,23.17
2022-12-03T10:04:10.667Z,22.45
2022-12-03T10:06:43.918Z,20.88
2022-12-03T10:09:15.012Z,20.98
2022-12-03T10:11:41.503Z,20.02
2022-12-03T10:14:14.359Z,20.92
2022-12-03T10:16:42.172Z,21.77
2022-12-03T10:19:16.084Z,20.98
2022-12-03T10:21:42.682Z,20.85
2022-12-03T10:24:30.765Z,19.60
2022-12-03T10:27:00.325Z,20.90
2022-12-03T10:29:34.491Z,20.55
2022-12-03T10:32:02.809Z,20.95
2022-12-03T10:34:45.907Z,19.05
2022-12-03T10:37:22.751Z,18.67
2022-12-03T10:40:11.218Z,20.23
2022-12-03T10:42:40.937Z,18.83
2022-12-03T10:45:21.081Z,19.27
2022-12-03T10:48:06.331Z,20.92
2022-12-03T10:50:34.448Z,19.80
2022-12-03T10:53:01.062Z,20.55
2022-12-03T10:55:33.949Z,20.83
2022-12-03T10:58:01.079Z,20.65
2022-12-03T11:00:27.710Z,20.83
2022-12-03T11:02:57.038Z,21.42
2022-12-03T11:05:28.302Z,20.80
2022-12-03T11:07:55.497Z,20.73
2022-12-03T11:10:22.451Z,19.95
2022-12-03T11:13:28.795Z,19.75
2022-12-03T11:15:56.456Z,20.92
2022-12-03T11:18:36.012Z,21.73
2022-12-03T11:21:07.931Z,20.40
2022-12-03T11:23:46.924Z,22.63
2022-12-03T11:26:19.573Z,21.90
2022-12-03T11:28:46.410Z,22.23
2022-12-03T11:31:43.103Z,21.75
2022-12-03T11:34:22.584Z,21.85
2022-12-03T11:37:11.172Z,22.95
2022-12-03T11:39:50.934Z,21.80
2022-12-03T11:42:26.549Z,22.27
2022-12-03T11:45:05.487Z,22.20
2022-12-03T11:47:42.397Z,22.25
2022-12-03T11:50:23.887Z,23.35
2022-12-03T11:53:02.035Z,23.10
2022-12-03T11:55:44.615Z,28.15
2022-12-03T11:58:26.347Z,107.28
2022-12-03T12:00:57.962Z,72.97
2022-12-03T12:03:33.079Z,123.40
2022-12-03T12:06:03.256Z,57.70
2022-12-03T12:08:31.477Z,30.45
2022-12-03T12:10:58.414Z,24.88
2022-12-03T12:13:31.316Z,22.73
2022-12-03T12:15:59.228Z,19.45
2022-12-03T12:18:55.117Z,22.38
2022-12-03T12:21:41.523Z,22.50
2022-12-03T12:24:45.114Z,21.20
2022-12-03T12:27:22.424Z,21.58
2022-12-03T12:29:54.942Z,24.27
2022-12-03T12:32:29.337Z,22.55
2022-12-03T12:35:16.792Z,22.83
2022-12-03T12:37:55.003Z,23.65
2022-12-03T12:40:28.829Z,23.40
2022-12-03T12:43:11.870Z,21.58
2022-12-03T12:45:42.310Z,21.60
2022-12-03T12:48:24.112Z,22.33
2022-12-03T12:50:58.301Z,20.77
2022-12-03T12:53:34.395Z,20.85
2022-12-03T12:56:26.609Z,21.00
2022-12-03T12:58:53.625Z,21.85
2022-12-03T13:01:24.821Z,22.10
2022-12-03T13:03:52.786Z,20.88
2022-12-03T13:06:26.663Z,21.75
2022-12-03T13:08:54.004Z,20.85
2022-12-03T13:11:42.329Z,21.20
2022-12-03T13:14:19.216Z,20.92
2022-12-03T13:16:48.566Z,20.33
2022-12-03T13:19:27.040Z,20.85
2022-12-03T13:21:58.684Z,22.05
2022-12-03T13:24:36.789Z,19.65
2022-12-03T13:27:23.113Z,21.70
2022-12-03T13:29:55.951Z,19.98
2022-12-03T13:32:27.969Z,20.73
2022-12-03T13:35:03.064Z,21.35
2022-12-03T13:37:31.444Z,20.58
2022-12-03T13:40:06.157Z,20.70
2022-12-03T13:42:41.456Z,19.98
2022-12-03T13:45:15.041Z,20.15
2022-12-03T13:47:46.016Z,19.10
2022-12-03T13:50:35.163Z,21.20
2022-12-03T13:53:30.007Z,20.98
2022-12-03T13:56:15.525Z,20.67
2022-12-03T13:58:42.340Z,19.08
2022-12-03T14:01:09.123Z,19.77
2022-12-03T14:03:36.583Z,19.77
2022-12-03T14:06:06.394Z,19.25
2022-12-03T14:08:33.451Z,19.05
2022-12-03T14:11:00.934Z,21.70
2022-12-03T14:13:28.071Z,20.38
2022-12-03T14:15:55.359Z,20.10
2022-12-03T14:18:22.857Z,19.77
2022-12-03T14:20:50.889Z,18.95
2022-12-03T14:23:17.791Z,19.00
2022-12-03T14:25:45.238Z,18.02
2022-12-03T14:28:12.168Z,18.83
2022-12-03T14:30:38.908Z,18.50
2022-12-03T14:33:05.434Z,19.95
2022-12-03T14:35:32.691Z,18.65
2022-12-03T14:37:59.474Z,18.88
2022-12-03T14:40:27.665Z,18.83
2022-12-03T14:43:02.203Z,19.52
2022-12-03T14:45:29.898Z,18.30
2022-12-03T14:47:56.916Z,19.33
2022-12-03T14:50:25.394Z,21.33
2022-12-03T14:52:53.125Z,20.73
2022-12-03T14:55:19.729Z,21.95
2022-12-03T14:57:46.865Z,21.20
2022-12-03T15:00:14.343Z,21.17
2022-12-03T15:02:41.195Z,24.08
2022-12-03T15:05:08.640Z,21.70
2022-12-03T15:07:35.677Z,25.15
2022-12-03T15:10:02.314Z,19.77
2022-12-03T15:12:29.070Z,24.58
2022-12-03T15:14:55.718Z,21.67
2022-12-03T15:17:30.914Z,20.55
2022-12-03T15:19:58.785Z,20.67
2022-12-03T15:22:25.220Z,22.10
2022-12-03T15:24:52.088Z,21.48
2022-12-03T15:27:18.828Z,20.73
2022-12-03T15:29:45.406Z,19.13
2022-12-03T15:32:13.159Z,20.10
2022-12-03T15:34:39.551Z,19.63
2022-12-03T15:37:06.461Z,20.23
2022-12-03T15:39:35.562Z,19.55
2022-12-03T15:42:02.339Z,21.05
2022-12-03T15:44:28.916Z,20.88
2022-12-03T15:46:55.614Z,19.38
2022-12-03T15:49:22.796Z,19.92
2022-12-03T15:51:49.303Z,20.95
2022-12-03T15:54:16.110Z,20.08
2022-12-03T15:56:42.728Z,21.25
2022-12-03T15:59:09.661Z,20.23
2022-12-03T16:01:36.683Z,20.08
2022-12-03T16:04:03.856Z,21.48
2022-12-03T16:06:31.063Z,19.65
2022-12-03T16:08:57.581Z,22.13
2022-12-03T16:11:24.107Z,20.35
2022-12-03T16:13:50.883Z,19.88
2022-12-03T16:16:17.427Z,21.05
2022-12-03T16:18:44.326Z,20.90
2022-12-03T16:21:10.768Z,20.60
2022-12-03T16:23:37.756Z,22.38
2022-12-03T16:26:04.594Z,21.88
2022-12-03T16:28:31.307Z,20.13
2022-12-03T16:30:58.002Z,19.80
2022-12-03T16:33:27.842Z,19.58
2022-12-03T16:35:55.237Z,21.27
2022-12-03T16:38:22.084Z,20.73
2022-12-03T16:40:49.387Z,19.58
2022-12-03T16:43:15.911Z,18.73
2022-12-03T16:45:46.086Z,18.63
2022-12-03T16:48:12.876Z,19.20
2022-12-03T16:50:40.164Z,20.23
2022-12-03T16:53:07.213Z,20.17
2022-12-03T16:55:34.536Z,19.30
2022-12-03T16:58:01.187Z,19.17
2022-12-03T17:00:28.030Z,18.73
2022-12-03T17:02:54.890Z,19.10
2022-12-03T17:05:21.468Z,19.17
2022-12-03T17:07:48.439Z,20.65
2022-12-03T17:10:15.063Z,18.20
2022-12-03T17:13:08.287Z,18.30
2022-12-03T17:15:29.328Z,17.08
2022-12-03T17:17:56.212Z,18.20
2022-12-03T17:20:23.205Z,17.48
2022-12-03T17:22:49.820Z,18.02
2022-12-03T17:25:17.002Z,17.10
2022-12-03T17:27:45.511Z,17.90
2022-12-03T17:30:12.795Z,16.83
2022-12-03T17:32:40.045Z,17.63
2022-12-03T17:35:07.639Z,15.82
2022-12-03T17:37:34.803Z,17.17
2022-12-03T17:40:02.400Z,18.20
2022-12-03T17:42:28.897Z,19.38
2022-12-03T17:44:56.617Z,17.88
2022-12-03T17:47:24.262Z,18.17
2022-12-03T17:49:51.497Z,16.92
2022-12-03T17:52:18.564Z,17.88
2022-12-03T17:55:09.648Z,19.77
2022-12-03T17:57:34.460Z,18.05
2022-12-03T18:00:01.256Z,17.73
2022-12-03T18:02:27.925Z,18.25
2022-12-03T18:04:57.499Z,18.60
2022-12-03T18:07:24.539Z,17.23
2022-12-03T18:09:51.411Z,17.17
2022-12-03T18:12:18.152Z,18.08
2022-12-03T18:14:44.971Z,18.13
2022-12-03T18:17:11.766Z,20.10
2022-12-03T18:19:38.738Z,19.95
2022-12-03T18:22:05.504Z,20.70
2022-12-03T18:24:32.868Z,21.40
2022-12-03T18:26:59.486Z,18.48
2022-12-03T18:29:27.363Z,20.27
2022-12-03T18:31:54.629Z,17.80
2022-12-03T18:34:21.285Z,20.38
2022-12-03T18:36:49.792Z,17.90
2022-12-03T18:39:36.065Z,17.80
2022-12-03T18:42:14.894Z,18.92
2022-12-03T18:44:46.334Z,19.60
2022-12-03T18:47:18.960Z,19.75
2022-12-03T18:49:46.170Z,19.08
2022-12-03T18:52:17.219Z,18.90
2022-12-03T18:54:43.992Z,18.42
2022-12-03T18:57:10.677Z,18.45
2022-12-03T18:59:37.918Z,19.17
2022-12-03T19:02:06.148Z,19.75
2022-12-03T19:04:32.984Z,18.77
2022-12-03T19:07:00.668Z,19.83
2022-12-03T19:09:29.924Z,19.42
2022-12-03T19:11:57.005Z,17.88
2022-12-03T19:14:23.619Z,18.70
2022-12-03T19:16:50.747Z,19.35
2022-12-03T19:19:17.415Z,18.42
2022-12-03T19:21:44.618Z,19.20
2022-12-03T19:24:26.756Z,19.52
2022-12-03T19:26:55.625Z,19.38
2022-12-03T19:29:23.048Z,19.95
2022-12-03T19:31:51.612Z,19.20
2022-12-03T19:34:19.445Z,18.45
2022-12-03T19:36:47.620Z,18.13
2022-12-03T19:39:14.161Z,18.17
2022-12-03T19:41:43.035Z,19.80
2022-12-03T19:44:14.297Z,19.88
2022-12-03T19:46:41.634Z,18.17
2022-12-03T19:49:08.878Z,18.08
2022-12-03T19:51:35.998Z,18.50
2022-12-03T19:54:07.696Z,18.67
2022-12-03T19:56:35.638Z,18.63
2022-12-03T19:59:02.815Z,18.55
2022-12-03T20:01:32.575Z,20.63
2022-12-03T20:04:01.357Z,18.55
2022-12-03T20:06:30.992Z,19.38
2022-12-03T20:09:03.656Z,18.47
2022-12-03T20:11:32.948Z,21.38
2022-12-03T20:14:02.079Z,19.13
2022-12-03T20:16:29.628Z,19.58
2022-12-03T20:18:59.058Z,19.25
2022-12-03T20:21:25.621Z,18.67
2022-12-03T20:23:53.165Z,17.75
2022-12-03T20:26:20.859Z,18.98
2022-12-03T20:28:49.177Z,17.67
2022-12-03T20:31:18.135Z,18.35
2022-12-03T20:33:47.400Z,18.88
2022-12-03T20:36:16.374Z,18.17
2022-12-03T20:38:43.474Z,17.65
2022-12-03T20:41:21.125Z,16.23
2022-12-03T20:43:50.848Z,17.00
2022-12-03T20:46:20.506Z,15.73
2022-12-03T20:48:48.034Z,13.02
2022-12-03T20:51:20.435Z,15.57
2022-12-03T20:53:48.947Z,14.00
2022-12-03T20:56:20.016Z,14.52
2022-12-03T20:58:48.648Z,13.82
2022-12-03T21:01:18.944Z,14.75
2022-12-03T21:03:46.504Z,15.70
2022-12-03T21:06:14.308Z,13.25
2022-12-03T21:08:42.973Z,14.15
2022-12-03T21:11:12.642Z,14.52
2022-12-03T21:13:43.446Z,14.80
2022-12-03T21:16:13.605Z,14.15
2022-12-03T21:18:40.635Z,15.23
2022-12-03T21:21:10.176Z,14.50
2022-12-03T21:23:37.524Z,14.95
2022-12-03T21:26:07.290Z,14.80
2022-12-03T21:28:34.191Z,14.80
2022-12-03T21:31:06.513Z,13.40
2022-12-03T21:33:33.943Z,13.63
2022-12-03T21:36:01.155Z,11.75
2022-12-03T21:38:29.243Z,12.63
2022-12-03T21:40:57.315Z,12.98
2022-12-03T21:43:24.739Z,13.50
2022-12-03T21:45:51.908Z,12.93
2022-12-03T21:48:21.728Z,12.52
2022-12-03T21:51:03.933Z,11.93
2022-12-03T21:53:32.055Z,11.95
2022-12-03T21:55:59.682Z,12.48
2022-12-03T21:58:26.329Z,12.18
2022-12-03T22:00:52.791Z,11.60
2022-12-03T22:03:19.655Z,12.23
2022-12-03T22:05:46.408Z,11.48
2022-12-03T22:08:13.739Z,11.45
2022-12-03T22:10:40.702Z,11.18
2022-12-03T22:13:07.269Z,11.45
2022-12-03T22:15:34.217Z,12.00
2022-12-03T22:18:00.745Z,12.05
2022-12-03T22:20:27.690Z,12.50
2022-12-03T22:22:54.747Z,13.25
2022-12-03T22:25:21.215Z,12.98
2022-12-03T22:27:47.978Z,13.55
2022-12-03T22:30:14.591Z,12.63
2022-12-03T22:32:41.087Z,11.55
2022-12-03T22:35:08.880Z,12.48
2022-12-03T22:37:35.498Z,12.65
2022-12-03T22:40:02.470Z,15.75
2022-12-03T22:42:29.007Z,15.18
2022-12-03T22:44:55.471Z,14.48
2022-12-03T22:47:22.479Z,12.05
2022-12-03T22:49:48.999Z,12.82
2022-12-03T22:52:15.977Z,13.68
2022-12-03T22:54:45.542Z,12.82
2022-12-03T22:57:13.121Z,13.80
2022-12-03T22:59:39.554Z,12.15
2022-12-03T23:02:06.175Z,13.32
2022-12-03T23:04:32.665Z,13.05
2022-12-03T23:06:59.149Z,13.30
2022-12-03T23:09:25.943Z,13.70
2022-12-03T23:11:52.896Z,13.85
2022-12-03T23:14:19.361Z,12.93
2022-12-03T23:16:45.813Z,14.15
2022-12-03T23:19:12.604Z,13.18
2022-12-03T23:21:39.073Z,13.80
2022-12-03T23:24:06.431Z,12.65
2022-12-03T23:26:36.039Z,12.48
2022-12-03T23:29:02.674Z,13.20
2022-12-03T23:31:31.288Z,13.25
2022-12-03T23:33:58.725Z,11.98
2022-12-03T23:36:27.615Z,13.50
2022-12-03T23:38:55.185Z,13.32
2022-12-03T23:41:23.337Z,12.98
2022-12-03T23:43:49.973Z,14.23
2022-12-03T23:46:23.315Z,13.25
2022-12-03T23:48:50.758Z,15.07
2022-12-03T23:51:20.428Z,13.55
2022-12-03T23:53:48.072Z,13.75
2022-12-03T23:56:19.562Z,13.63
2022-12-03T23:58:46.796Z,15.25
